Terminal Aerodrome Forecast
Issued by NWS Corpus Christi, TX

Home | Current Version | Previous Version | Text Only | Print | Product List | Glossary On
Versions: 1 2 3 4 5 6 7 8 9 10 11 12 13 14 15
000
FTUS44 KCRP 282300
TAFCRP
TAF
KCRP 282322Z 0100/0124 35010KT 2SM -RA BR OVC004
     FM010300 35010KT 1SM -RA BR OVC003
     FM010600 35008KT 1/2SM -RA FG OVC001
     FM011800 36007KT 3SM -DZ OVC005
     FM012100 36007KT 6SM -DZ OVC008=

USA.gov is the U.S. government's official web portal to all federal, state and local government web resources and services.